sensor_id;sensor_type;location;lat;lon;timestamp;P1;durP1;ratioP1;P2;durP2;ratioP2
17372;SDS011;8803;48.116;11.590;2023-01-29T00:01:33;16.57;;;12.33;;
17372;SDS011;8803;48.116;11.590;2023-01-29T00:03:37;18.27;;;12.63;;
17372;SDS011;8803;48.116;11.590;2023-01-29T00:05:41;16.73;;;12.63;;
17372;SDS011;8803;48.116;11.590;2023-01-29T00:07:55;14.57;;;10.90;;
17372;SDS011;8803;48.116;11.590;2023-01-29T00:09:59;16.57;;;11.43;;
17372;SDS011;8803;48.116;11.590;2023-01-29T00:12:11;13.73;;;10.50;;
17372;SDS011;8803;48.116;11.590;2023-01-29T00:14:15;13.43;;;10.53;;
17372;SDS011;8803;48.116;11.590;2023-01-29T00:16:20;11.47;;;9.83;;
17372;SDS011;8803;48.116;11.590;2023-01-29T00:18:24;13.73;;;10.57;;
17372;SDS011;8803;48.116;11.590;2023-01-29T00:20:29;11.70;;;10.13;;
17372;SDS011;8803;48.116;11.590;2023-01-29T00:22:42;12.57;;;9.77;;
17372;SDS011;8803;48.116;11.590;2023-01-29T00:24:46;11.90;;;10.53;;
17372;SDS011;8803;48.116;11.590;2023-01-29T00:26:49;14.70;;;10.87;;
17372;SDS011;8803;48.116;11.590;2023-01-29T00:28:53;13.93;;;11.07;;
17372;SDS011;8803;48.116;11.590;2023-01-29T00:31:07;16.47;;;12.17;;
17372;SDS011;8803;48.116;11.590;2023-01-29T00:33:11;14.10;;;10.87;;
17372;SDS011;8803;48.116;11.590;2023-01-29T00:35:15;17.67;;;11.87;;
17372;SDS011;8803;48.116;11.590;2023-01-29T00:37:19;15.67;;;11.93;;
17372;SDS011;8803;48.116;11.590;2023-01-29T00:39:22;15.87;;;11.57;;
17372;SDS011;8803;48.116;11.590;2023-01-29T00:41:37;15.80;;;11.87;;
17372;SDS011;8803;48.116;11.590;2023-01-29T00:43:59;15.80;;;12.67;;
17372;SDS011;8803;48.116;11.590;2023-01-29T00:46:21;14.60;;;11.77;;
17372;SDS011;8803;48.116;11.590;2023-01-29T00:48:24;12.30;;;11.00;;
17372;SDS011;8803;48.116;11.590;2023-01-29T00:50:37;14.27;;;11.03;;
17372;SDS011;8803;48.116;11.590;2023-01-29T00:52:41;13.87;;;11.17;;
17372;SDS011;8803;48.116;11.590;2023-01-29T00:54:55;13.50;;;11.00;;
17372;SDS011;8803;48.116;11.590;2023-01-29T00:57:00;14.33;;;11.73;;
17372;SDS011;8803;48.116;11.590;2023-01-29T00:59:04;18.43;;;12.37;;
17372;SDS011;8803;48.116;11.590;2023-01-29T01:01:17;13.53;;;11.23;;
17372;SDS011;8803;48.116;11.590;2023-01-29T01:03:23;16.27;;;11.70;;
17372;SDS011;8803;48.116;11.590;2023-01-29T01:05:27;15.03;;;11.77;;
17372;SDS011;8803;48.116;11.590;2023-01-29T01:07:31;14.63;;;11.10;;
17372;SDS011;8803;48.116;11.590;2023-01-29T01:09:34;14.53;;;12.10;;
17372;SDS011;8803;48.116;11.590;2023-01-29T01:11:47;16.60;;;11.87;;
17372;SDS011;8803;48.116;11.590;2023-01-29T01:13:51;16.30;;;12.57;;
17372;SDS011;8803;48.116;11.590;2023-01-29T01:16:08;16.47;;;12.43;;
17372;SDS011;8803;48.116;11.590;2023-01-29T01:18:12;14.93;;;12.00;;
17372;SDS011;8803;48.116;11.590;2023-01-29T01:20:16;15.53;;;12.97;;
17372;SDS011;8803;48.116;11.590;2023-01-29T01:22:30;15.90;;;12.83;;
17372;SDS011;8803;48.116;11.590;2023-01-29T01:24:33;17.73;;;12.37;;
17372;SDS011;8803;48.116;11.590;2023-01-29T01:26:37;16.67;;;12.40;;
17372;SDS011;8803;48.116;11.590;2023-01-29T01:28:41;13.83;;;10.97;;
17372;SDS011;8803;48.116;11.590;2023-01-29T01:30:45;16.40;;;12.37;;
17372;SDS011;8803;48.116;11.590;2023-01-29T01:33:02;16.57;;;12.17;;
17372;SDS011;8803;48.116;11.590;2023-01-29T01:35:07;15.10;;;11.43;;
17372;SDS011;8803;48.116;11.590;2023-01-29T01:37:13;17.07;;;12.60;;
17372;SDS011;8803;48.116;11.590;2023-01-29T01:39:17;16.97;;;12.90;;
17372;SDS011;8803;48.116;11.590;2023-01-29T01:41:30;18.90;;;13.07;;
17372;SDS011;8803;48.116;11.590;2023-01-29T01:43:46;13.73;;;11.80;;
17372;SDS011;8803;48.116;11.590;2023-01-29T01:45:51;17.80;;;13.20;;
17372;SDS011;8803;48.116;11.590;2023-01-29T01:47:56;15.80;;;12.20;;
17372;SDS011;8803;48.116;11.590;2023-01-29T01:50:11;16.13;;;11.53;;
17372;SDS011;8803;48.116;11.590;2023-01-29T01:52:17;13.80;;;10.90;;
17372;SDS011;8803;48.116;11.590;2023-01-29T01:54:32;14.47;;;11.17;;
17372;SDS011;8803;48.116;11.590;2023-01-29T01:56:36;14.17;;;10.37;;
17372;SDS011;8803;48.116;11.590;2023-01-29T01:58:51;15.17;;;12.30;;
17372;SDS011;8803;48.116;11.590;2023-01-29T02:01:05;13.97;;;11.00;;
17372;SDS011;8803;48.116;11.590;2023-01-29T02:03:11;14.70;;;11.40;;
17372;SDS011;8803;48.116;11.590;2023-01-29T02:05:27;14.90;;;12.10;;
17372;SDS011;8803;48.116;11.590;2023-01-29T02:07:48;12.67;;;10.70;;
17372;SDS011;8803;48.116;11.590;2023-01-29T02:10:11;16.10;;;11.37;;
17372;SDS011;8803;48.116;11.590;2023-01-29T02:12:25;14.47;;;11.47;;
17372;SDS011;8803;48.116;11.590;2023-01-29T02:14:31;13.23;;;10.90;;
17372;SDS011;8803;48.116;11.590;2023-01-29T02:16:55;13.07;;;10.83;;
17372;SDS011;8803;48.116;11.590;2023-01-29T02:18:59;15.20;;;11.90;;
17372;SDS011;8803;48.116;11.590;2023-01-29T02:21:19;16.03;;;12.23;;
17372;SDS011;8803;48.116;11.590;2023-01-29T02:26:21;12.57;;;10.43;;
17372;SDS011;8803;48.116;11.590;2023-01-29T02:30:58;11.23;;;9.13;;
17372;SDS011;8803;48.116;11.590;2023-01-29T02:35:17;13.33;;;10.30;;
17372;SDS011;8803;48.116;11.590;2023-01-29T02:37:31;12.27;;;8.90;;
17372;SDS011;8803;48.116;11.590;2023-01-29T02:41:49;11.13;;;9.33;;
17372;SDS011;8803;48.116;11.590;2023-01-29T02:46:10;13.60;;;9.70;;
17372;SDS011;8803;48.116;11.590;2023-01-29T02:48:19;12.27;;;9.77;;
17372;SDS011;8803;48.116;11.590;2023-01-29T02:50:32;11.97;;;9.53;;
17372;SDS011;8803;48.116;11.590;2023-01-29T02:52:39;11.67;;;9.10;;
17372;SDS011;8803;48.116;11.590;2023-01-29T02:54:54;12.50;;;9.50;;
17372;SDS011;8803;48.116;11.590;2023-01-29T02:57:03;10.70;;;9.10;;
17372;SDS011;8803;48.116;11.590;2023-01-29T02:59:13;11.30;;;8.93;;
17372;SDS011;8803;48.116;11.590;2023-01-29T03:01:27;10.60;;;9.17;;
17372;SDS011;8803;48.116;11.590;2023-01-29T03:03:35;10.20;;;8.77;;
17372;SDS011;8803;48.116;11.590;2023-01-29T03:05:42;10.33;;;8.77;;
17372;SDS011;8803;48.116;11.590;2023-01-29T03:07:52;11.07;;;9.00;;
17372;SDS011;8803;48.116;11.590;2023-01-29T03:09:58;10.30;;;8.37;;
17372;SDS011;8803;48.116;11.590;2023-01-29T03:12:06;9.90;;;8.80;;
17372;SDS011;8803;48.116;11.590;2023-01-29T03:14:20;10.53;;;9.07;;
17372;SDS011;8803;48.116;11.590;2023-01-29T03:16:28;13.33;;;9.57;;
17372;SDS011;8803;48.116;11.590;2023-01-29T03:18:45;12.07;;;9.17;;
17372;SDS011;8803;48.116;11.590;2023-01-29T03:20:52;11.20;;;9.23;;
17372;SDS011;8803;48.116;11.590;2023-01-29T03:23:06;11.30;;;9.13;;
17372;SDS011;8803;48.116;11.590;2023-01-29T03:25:12;10.70;;;8.77;;
17372;SDS011;8803;48.116;11.590;2023-01-29T03:27:25;11.17;;;8.67;;
17372;SDS011;8803;48.116;11.590;2023-01-29T03:29:49;10.63;;;9.43;;
17372;SDS011;8803;48.116;11.590;2023-01-29T03:32:03;10.97;;;9.00;;
17372;SDS011;8803;48.116;11.590;2023-01-29T03:34:08;11.17;;;8.50;;
17372;SDS011;8803;48.116;11.590;2023-01-29T03:36:23;11.80;;;9.30;;
17372;SDS011;8803;48.116;11.590;2023-01-29T03:38:29;10.67;;;9.10;;
17372;SDS011;8803;48.116;11.590;2023-01-29T03:40:34;10.83;;;9.27;;
17372;SDS011;8803;48.116;11.590;2023-01-29T03:42:49;10.57;;;8.80;;
17372;SDS011;8803;48.116;11.590;2023-01-29T03:44:57;12.37;;;9.83;;
17372;SDS011;8803;48.116;11.590;2023-01-29T03:47:07;11.43;;;9.13;;
17372;SDS011;8803;48.116;11.590;2023-01-29T03:49:17;12.27;;;10.27;;
17372;SDS011;8803;48.116;11.590;2023-01-29T03:51:31;13.97;;;10.60;;
17372;SDS011;8803;48.116;11.590;2023-01-29T03:53:37;10.67;;;9.57;;
17372;SDS011;8803;48.116;11.590;2023-01-29T03:55:53;12.70;;;10.17;;
17372;SDS011;8803;48.116;11.590;2023-01-29T03:57:59;13.40;;;11.10;;
17372;SDS011;8803;48.116;11.590;2023-01-29T04:00:19;11.80;;;9.63;;
17372;SDS011;8803;48.116;11.590;2023-01-29T04:02:26;12.37;;;9.37;;
17372;SDS011;8803;48.116;11.590;2023-01-29T04:04:40;11.10;;;9.43;;
17372;SDS011;8803;48.116;11.590;2023-01-29T04:06:48;11.63;;;9.37;;
17372;SDS011;8803;48.116;11.590;2023-01-29T04:09:02;12.17;;;9.73;;
17372;SDS011;8803;48.116;11.590;2023-01-29T04:11:09;11.83;;;9.13;;
17372;SDS011;8803;48.116;11.590;2023-01-29T04:13:24;12.13;;;10.33;;
17372;SDS011;8803;48.116;11.590;2023-01-29T04:15:30;13.60;;;10.83;;
17372;SDS011;8803;48.116;11.590;2023-01-29T04:17:46;12.90;;;10.60;;
17372;SDS011;8803;48.116;11.590;2023-01-29T04:19:52;14.37;;;11.00;;
17372;SDS011;8803;48.116;11.590;2023-01-29T04:22:06;12.40;;;9.93;;
17372;SDS011;8803;48.116;11.590;2023-01-29T04:24:13;13.70;;;10.83;;
17372;SDS011;8803;48.116;11.590;2023-01-29T04:26:31;12.47;;;10.23;;
17372;SDS011;8803;48.116;11.590;2023-01-29T04:28:45;14.50;;;10.37;;
17372;SDS011;8803;48.116;11.590;2023-01-29T04:31:00;14.43;;;11.77;;
17372;SDS011;8803;48.116;11.590;2023-01-29T04:33:10;12.63;;;10.67;;
17372;SDS011;8803;48.116;11.590;2023-01-29T04:35:21;13.67;;;11.07;;
17372;SDS011;8803;48.116;11.590;2023-01-29T04:37:31;13.70;;;10.50;;
17372;SDS011;8803;48.116;11.590;2023-01-29T04:39:47;14.47;;;11.47;;
17372;SDS011;8803;48.116;11.590;2023-01-29T04:41:54;12.60;;;10.50;;
17372;SDS011;8803;48.116;11.590;2023-01-29T04:44:01;11.87;;;10.27;;
17372;SDS011;8803;48.116;11.590;2023-01-29T04:46:17;13.47;;;11.50;;
17372;SDS011;8803;48.116;11.590;2023-01-29T04:48:31;14.67;;;11.30;;
17372;SDS011;8803;48.116;11.590;2023-01-29T04:50:38;13.30;;;10.97;;
17372;SDS011;8803;48.116;11.590;2023-01-29T04:52:55;16.77;;;12.60;;
17372;SDS011;8803;48.116;11.590;2023-01-29T04:55:03;14.57;;;12.27;;
17372;SDS011;8803;48.116;11.590;2023-01-29T04:57:18;15.23;;;12.50;;
17372;SDS011;8803;48.116;11.590;2023-01-29T04:59:26;16.77;;;12.70;;
17372;SDS011;8803;48.116;11.590;2023-01-29T05:01:41;14.13;;;12.03;;
17372;SDS011;8803;48.116;11.590;2023-01-29T05:03:47;15.47;;;12.73;;
17372;SDS011;8803;48.116;11.590;2023-01-29T05:06:00;15.60;;;12.13;;
17372;SDS011;8803;48.116;11.590;2023-01-29T05:08:06;14.43;;;12.27;;
17372;SDS011;8803;48.116;11.590;2023-01-29T05:10:12;14.73;;;11.33;;
17372;SDS011;8803;48.116;11.590;2023-01-29T05:12:25;14.33;;;12.03;;
17372;SDS011;8803;48.116;11.590;2023-01-29T05:14:31;13.43;;;10.67;;
17372;SDS011;8803;48.116;11.590;2023-01-29T05:16:37;11.63;;;9.27;;
17372;SDS011;8803;48.116;11.590;2023-01-29T05:20:56;8.93;;;7.27;;
17372;SDS011;8803;48.116;11.590;2023-01-29T05:25:19;9.40;;;7.27;;
17372;SDS011;8803;48.116;11.590;2023-01-29T05:27:27;10.70;;;8.43;;
17372;SDS011;8803;48.116;11.590;2023-01-29T05:29:42;11.20;;;8.97;;
17372;SDS011;8803;48.116;11.590;2023-01-29T05:31:46;16.70;;;12.83;;
17372;SDS011;8803;48.116;11.590;2023-01-29T05:33:50;21.53;;;14.70;;
17372;SDS011;8803;48.116;11.590;2023-01-29T05:36:03;18.33;;;13.77;;
17372;SDS011;8803;48.116;11.590;2023-01-29T05:38:08;15.97;;;12.10;;
17372;SDS011;8803;48.116;11.590;2023-01-29T05:40:21;14.10;;;10.87;;
17372;SDS011;8803;48.116;11.590;2023-01-29T05:44:38;11.60;;;8.53;;
17372;SDS011;8803;48.116;11.590;2023-01-29T05:46:42;8.50;;;7.23;;
17372;SDS011;8803;48.116;11.590;2023-01-29T05:48:46;8.50;;;7.20;;
17372;SDS011;8803;48.116;11.590;2023-01-29T05:50:50;8.87;;;6.83;;
17372;SDS011;8803;48.116;11.590;2023-01-29T05:53:02;7.93;;;6.37;;
17372;SDS011;8803;48.116;11.590;2023-01-29T05:55:07;9.23;;;8.00;;
17372;SDS011;8803;48.116;11.590;2023-01-29T05:57:12;10.27;;;7.97;;
17372;SDS011;8803;48.116;11.590;2023-01-29T05:59:25;9.30;;;7.23;;
17372;SDS011;8803;48.116;11.590;2023-01-29T06:01:31;9.40;;;7.37;;
17372;SDS011;8803;48.116;11.590;2023-01-29T06:03:44;9.93;;;7.00;;
17372;SDS011;8803;48.116;11.590;2023-01-29T06:05:47;9.23;;;7.17;;
17372;SDS011;8803;48.116;11.590;2023-01-29T06:07:51;10.63;;;8.40;;
17372;SDS011;8803;48.116;11.590;2023-01-29T06:12:06;12.57;;;9.57;;
17372;SDS011;8803;48.116;11.590;2023-01-29T06:14:10;12.57;;;9.87;;
17372;SDS011;8803;48.116;11.590;2023-01-29T06:16:24;12.90;;;11.00;;
17372;SDS011;8803;48.116;11.590;2023-01-29T06:18:27;16.30;;;12.17;;
17372;SDS011;8803;48.116;11.590;2023-01-29T06:20:40;15.50;;;11.60;;
17372;SDS011;8803;48.116;11.590;2023-01-29T06:22:44;17.73;;;11.83;;
17372;SDS011;8803;48.116;11.590;2023-01-29T06:24:56;14.17;;;12.13;;
17372;SDS011;8803;48.116;11.590;2023-01-29T06:27:00;14.70;;;11.70;;
17372;SDS011;8803;48.116;11.590;2023-01-29T06:29:04;13.77;;;11.40;;
17372;SDS011;8803;48.116;11.590;2023-01-29T06:31:08;16.80;;;13.97;;
17372;SDS011;8803;48.116;11.590;2023-01-29T06:33:21;18.17;;;13.87;;
17372;SDS011;8803;48.116;11.590;2023-01-29T06:35:25;15.93;;;12.70;;
17372;SDS011;8803;48.116;11.590;2023-01-29T06:37:38;16.17;;;12.67;;
17372;SDS011;8803;48.116;11.590;2023-01-29T06:39:42;16.03;;;12.73;;
17372;SDS011;8803;48.116;11.590;2023-01-29T06:41:46;17.57;;;13.27;;
17372;SDS011;8803;48.116;11.590;2023-01-29T06:43:58;15.80;;;13.40;;
17372;SDS011;8803;48.116;11.590;2023-01-29T06:46:03;16.10;;;12.90;;
17372;SDS011;8803;48.116;11.590;2023-01-29T06:48:08;12.47;;;10.07;;
17372;SDS011;8803;48.116;11.590;2023-01-29T06:52:23;16.70;;;13.30;;
17372;SDS011;8803;48.116;11.590;2023-01-29T06:54:28;18.30;;;14.53;;
17372;SDS011;8803;48.116;11.590;2023-01-29T06:56:32;17.10;;;13.03;;
17372;SDS011;8803;48.116;11.590;2023-01-29T06:58:36;16.23;;;13.40;;
17372;SDS011;8803;48.116;11.590;2023-01-29T07:00:40;17.97;;;12.70;;
17372;SDS011;8803;48.116;11.590;2023-01-29T07:02:53;18.30;;;13.53;;
17372;SDS011;8803;48.116;11.590;2023-01-29T07:04:56;14.57;;;12.50;;
17372;SDS011;8803;48.116;11.590;2023-01-29T07:07:00;17.30;;;13.33;;
17372;SDS011;8803;48.116;11.590;2023-01-29T07:11:15;16.77;;;12.90;;
17372;SDS011;8803;48.116;11.590;2023-01-29T07:13:19;16.60;;;12.47;;
17372;SDS011;8803;48.116;11.590;2023-01-29T07:15:23;15.87;;;11.80;;
17372;SDS011;8803;48.116;11.590;2023-01-29T07:17:28;15.43;;;12.13;;
17372;SDS011;8803;48.116;11.590;2023-01-29T07:21:43;11.43;;;9.03;;
17372;SDS011;8803;48.116;11.590;2023-01-29T07:23:47;10.07;;;7.87;;
17372;SDS011;8803;48.116;11.590;2023-01-29T07:26:00;10.17;;;7.67;;
17372;SDS011;8803;48.116;11.590;2023-01-29T07:28:04;8.80;;;7.30;;
17372;SDS011;8803;48.116;11.590;2023-01-29T07:30:18;8.80;;;7.87;;
17372;SDS011;8803;48.116;11.590;2023-01-29T07:32:22;9.67;;;7.87;;
17372;SDS011;8803;48.116;11.590;2023-01-29T07:34:36;10.10;;;8.10;;
17372;SDS011;8803;48.116;11.590;2023-01-29T07:36:40;9.47;;;7.80;;
17372;SDS011;8803;48.116;11.590;2023-01-29T07:38:43;9.83;;;7.40;;
17372;SDS011;8803;48.116;11.590;2023-01-29T07:40:51;10.00;;;7.83;;
17372;SDS011;8803;48.116;11.590;2023-01-29T07:42:57;9.30;;;7.80;;
17372;SDS011;8803;48.116;11.590;2023-01-29T07:45:11;10.23;;;8.60;;
17372;SDS011;8803;48.116;11.590;2023-01-29T07:47:14;9.30;;;7.57;;
17372;SDS011;8803;48.116;11.590;2023-01-29T07:49:18;11.67;;;8.73;;
17372;SDS011;8803;48.116;11.590;2023-01-29T07:51:31;8.67;;;7.60;;
17372;SDS011;8803;48.116;11.590;2023-01-29T07:53:35;10.13;;;7.50;;
17372;SDS011;8803;48.116;11.590;2023-01-29T07:55:47;9.67;;;7.40;;
17372;SDS011;8803;48.116;11.590;2023-01-29T07:57:54;10.20;;;7.20;;
17372;SDS011;8803;48.116;11.590;2023-01-29T08:00:10;9.50;;;7.00;;
17372;SDS011;8803;48.116;11.590;2023-01-29T08:02:16;8.90;;;7.10;;
17372;SDS011;8803;48.116;11.590;2023-01-29T08:04:28;7.63;;;6.30;;
17372;SDS011;8803;48.116;11.590;2023-01-29T08:06:32;7.63;;;6.33;;
17372;SDS011;8803;48.116;11.590;2023-01-29T08:08:36;7.03;;;5.90;;
17372;SDS011;8803;48.116;11.590;2023-01-29T08:12:55;7.47;;;5.83;;
17372;SDS011;8803;48.116;11.590;2023-01-29T08:14:59;7.80;;;5.70;;
17372;SDS011;8803;48.116;11.590;2023-01-29T08:17:12;7.47;;;5.63;;
17372;SDS011;8803;48.116;11.590;2023-01-29T08:19:16;7.47;;;6.17;;
17372;SDS011;8803;48.116;11.590;2023-01-29T08:21:29;7.47;;;5.73;;
17372;SDS011;8803;48.116;11.590;2023-01-29T08:23:32;7.20;;;5.80;;
17372;SDS011;8803;48.116;11.590;2023-01-29T08:25:36;7.17;;;5.73;;
17372;SDS011;8803;48.116;11.590;2023-01-29T08:27:40;6.77;;;5.23;;
17372;SDS011;8803;48.116;11.590;2023-01-29T08:29:52;6.13;;;5.53;;
17372;SDS011;8803;48.116;11.590;2023-01-29T08:31:56;7.13;;;5.77;;
17372;SDS011;8803;48.116;11.590;2023-01-29T08:34:09;6.73;;;5.50;;
17372;SDS011;8803;48.116;11.590;2023-01-29T08:36:13;7.27;;;5.90;;
17372;SDS011;8803;48.116;11.590;2023-01-29T08:38:25;8.63;;;6.67;;
17372;SDS011;8803;48.116;11.590;2023-01-29T08:40:30;9.20;;;6.90;;
17372;SDS011;8803;48.116;11.590;2023-01-29T08:42:42;8.40;;;6.30;;
17372;SDS011;8803;48.116;11.590;2023-01-29T08:44:46;8.17;;;6.07;;
17372;SDS011;8803;48.116;11.590;2023-01-29T08:46:59;8.40;;;6.80;;
17372;SDS011;8803;48.116;11.590;2023-01-29T08:49:03;7.77;;;6.20;;
17372;SDS011;8803;48.116;11.590;2023-01-29T08:51:07;7.57;;;6.07;;
17372;SDS011;8803;48.116;11.590;2023-01-29T08:53:22;10.17;;;7.10;;
17372;SDS011;8803;48.116;11.590;2023-01-29T08:55:26;9.30;;;6.80;;
17372;SDS011;8803;48.116;11.590;2023-01-29T08:57:31;7.97;;;6.20;;
17372;SDS011;8803;48.116;11.590;2023-01-29T08:59:34;9.30;;;6.70;;
17372;SDS011;8803;48.116;11.590;2023-01-29T09:01:47;7.20;;;6.17;;
17372;SDS011;8803;48.116;11.590;2023-01-29T09:03:51;8.07;;;6.10;;
17372;SDS011;8803;48.116;11.590;2023-01-29T09:05:55;8.07;;;6.63;;
17372;SDS011;8803;48.116;11.590;2023-01-29T09:07:58;8.17;;;7.00;;
17372;SDS011;8803;48.116;11.590;2023-01-29T09:10:11;8.07;;;6.80;;
17372;SDS011;8803;48.116;11.590;2023-01-29T09:12:15;7.40;;;5.97;;
17372;SDS011;8803;48.116;11.590;2023-01-29T09:14:29;7.30;;;5.97;;
17372;SDS011;8803;48.116;11.590;2023-01-29T09:16:33;8.90;;;6.73;;
17372;SDS011;8803;48.116;11.590;2023-01-29T09:18:37;8.17;;;5.77;;
17372;SDS011;8803;48.116;11.590;2023-01-29T09:20:41;6.77;;;5.60;;
17372;SDS011;8803;48.116;11.590;2023-01-29T09:22:53;7.83;;;5.60;;
17372;SDS011;8803;48.116;11.590;2023-01-29T09:24:59;7.17;;;5.97;;
17372;SDS011;8803;48.116;11.590;2023-01-29T09:27:13;8.47;;;5.83;;
17372;SDS011;8803;48.116;11.590;2023-01-29T09:29:17;7.07;;;5.57;;
17372;SDS011;8803;48.116;11.590;2023-01-29T09:31:29;6.30;;;5.33;;
17372;SDS011;8803;48.116;11.590;2023-01-29T09:33:33;8.33;;;6.13;;
17372;SDS011;8803;48.116;11.590;2023-01-29T09:35:46;8.43;;;6.27;;
17372;SDS011;8803;48.116;11.590;2023-01-29T09:37:50;6.20;;;5.60;;
17372;SDS011;8803;48.116;11.590;2023-01-29T09:39:54;9.17;;;6.63;;
17372;SDS011;8803;48.116;11.590;2023-01-29T09:42:09;7.37;;;5.93;;
17372;SDS011;8803;48.116;11.590;2023-01-29T09:44:16;7.90;;;5.60;;
17372;SDS011;8803;48.116;11.590;2023-01-29T09:46:34;7.50;;;6.13;;
17372;SDS011;8803;48.116;11.590;2023-01-29T09:48:37;8.53;;;6.20;;
17372;SDS011;8803;48.116;11.590;2023-01-29T09:50:42;8.40;;;6.33;;
17372;SDS011;8803;48.116;11.590;2023-01-29T09:52:48;7.83;;;6.10;;
17372;SDS011;8803;48.116;11.590;2023-01-29T09:54:56;6.97;;;5.87;;
17372;SDS011;8803;48.116;11.590;2023-01-29T09:57:03;9.23;;;6.47;;
17372;SDS011;8803;48.116;11.590;2023-01-29T09:59:20;8.30;;;6.97;;
17372;SDS011;8803;48.116;11.590;2023-01-29T10:01:28;7.43;;;6.47;;
17372;SDS011;8803;48.116;11.590;2023-01-29T10:03:40;7.53;;;6.50;;
17372;SDS011;8803;48.116;11.590;2023-01-29T10:06:10;7.53;;;6.23;;
17372;SDS011;8803;48.116;11.590;2023-01-29T10:08:25;8.07;;;6.70;;
17372;SDS011;8803;48.116;11.590;2023-01-29T10:10:48;9.03;;;6.90;;
17372;SDS011;8803;48.116;11.590;2023-01-29T10:13:01;9.03;;;7.23;;
17372;SDS011;8803;48.116;11.590;2023-01-29T10:15:25;8.60;;;6.97;;
17372;SDS011;8803;48.116;11.590;2023-01-29T10:17:42;9.30;;;7.63;;
17372;SDS011;8803;48.116;11.590;2023-01-29T10:20:02;9.87;;;7.63;;
17372;SDS011;8803;48.116;11.590;2023-01-29T10:22:32;9.20;;;6.73;;
17372;SDS011;8803;48.116;11.590;2023-01-29T10:24:45;10.33;;;8.00;;
17372;SDS011;8803;48.116;11.590;2023-01-29T10:26:51;9.63;;;7.80;;
17372;SDS011;8803;48.116;11.590;2023-01-29T10:31:07;12.73;;;9.40;;
17372;SDS011;8803;48.116;11.590;2023-01-29T10:35:26;10.60;;;8.37;;
17372;SDS011;8803;48.116;11.590;2023-01-29T10:37:33;11.67;;;9.50;;
17372;SDS011;8803;48.116;11.590;2023-01-29T10:39:47;11.53;;;9.27;;
17372;SDS011;8803;48.116;11.590;2023-01-29T10:41:59;12.27;;;8.53;;
17372;SDS011;8803;48.116;11.590;2023-01-29T10:44:16;10.63;;;8.40;;
17372;SDS011;8803;48.116;11.590;2023-01-29T10:46:26;11.13;;;9.40;;
17372;SDS011;8803;48.116;11.590;2023-01-29T10:48:37;10.40;;;9.03;;
17372;SDS011;8803;48.116;11.590;2023-01-29T10:53:11;9.97;;;8.53;;
17372;SDS011;8803;48.116;11.590;2023-01-29T10:55:23;9.73;;;8.43;;
17372;SDS011;8803;48.116;11.590;2023-01-29T10:57:44;12.00;;;9.20;;
17372;SDS011;8803;48.116;11.590;2023-01-29T10:59:55;11.30;;;8.50;;
17372;SDS011;8803;48.116;11.590;2023-01-29T11:02:12;11.40;;;9.47;;
17372;SDS011;8803;48.116;11.590;2023-01-29T11:04:18;10.93;;;9.20;;
17372;SDS011;8803;48.116;11.590;2023-01-29T11:06:23;11.37;;;8.73;;
17372;SDS011;8803;48.116;11.590;2023-01-29T11:08:30;9.93;;;8.60;;
17372;SDS011;8803;48.116;11.590;2023-01-29T11:12:48;9.97;;;8.37;;
17372;SDS011;8803;48.116;11.590;2023-01-29T11:14:54;10.40;;;8.40;;
17372;SDS011;8803;48.116;11.590;2023-01-29T11:17:00;10.00;;;8.30;;
17372;SDS011;8803;48.116;11.590;2023-01-29T11:19:04;9.63;;;8.37;;
17372;SDS011;8803;48.116;11.590;2023-01-29T11:21:08;9.27;;;8.23;;
17372;SDS011;8803;48.116;11.590;2023-01-29T11:23:25;10.17;;;8.70;;
17372;SDS011;8803;48.116;11.590;2023-01-29T11:25:30;10.10;;;8.83;;
17372;SDS011;8803;48.116;11.590;2023-01-29T11:27:37;11.23;;;9.13;;
17372;SDS011;8803;48.116;11.590;2023-01-29T11:29:50;10.30;;;8.63;;
17372;SDS011;8803;48.116;11.590;2023-01-29T11:32:04;10.83;;;8.73;;
17372;SDS011;8803;48.116;11.590;2023-01-29T11:34:12;9.37;;;8.03;;
17372;SDS011;8803;48.116;11.590;2023-01-29T11:36:29;10.13;;;9.13;;
17372;SDS011;8803;48.116;11.590;2023-01-29T11:38:35;10.23;;;9.03;;
17372;SDS011;8803;48.116;11.590;2023-01-29T11:40:39;10.83;;;8.77;;
17372;SDS011;8803;48.116;11.590;2023-01-29T11:42:52;11.50;;;9.07;;
17372;SDS011;8803;48.116;11.590;2023-01-29T11:44:56;10.57;;;9.13;;
17372;SDS011;8803;48.116;11.590;2023-01-29T11:47:09;9.70;;;8.53;;
17372;SDS011;8803;48.116;11.590;2023-01-29T11:49:20;11.07;;;8.87;;
17372;SDS011;8803;48.116;11.590;2023-01-29T11:51:36;10.13;;;8.80;;
17372;SDS011;8803;48.116;11.590;2023-01-29T11:53:42;11.87;;;9.40;;
17372;SDS011;8803;48.116;11.590;2023-01-29T11:55:48;10.47;;;8.77;;
17372;SDS011;8803;48.116;11.590;2023-01-29T11:57:52;10.03;;;8.97;;
17372;SDS011;8803;48.116;11.590;2023-01-29T12:02:17;12.40;;;9.80;;
17372;SDS011;8803;48.116;11.590;2023-01-29T12:04:31;11.67;;;9.67;;
17372;SDS011;8803;48.116;11.590;2023-01-29T12:06:35;12.07;;;9.37;;
17372;SDS011;8803;48.116;11.590;2023-01-29T12:08:41;12.00;;;8.93;;
17372;SDS011;8803;48.116;11.590;2023-01-29T12:13:17;10.53;;;8.83;;
17372;SDS011;8803;48.116;11.590;2023-01-29T12:15:25;11.53;;;9.67;;
17372;SDS011;8803;48.116;11.590;2023-01-29T12:17:29;12.27;;;10.47;;
17372;SDS011;8803;48.116;11.590;2023-01-29T12:19:35;12.10;;;9.60;;
17372;SDS011;8803;48.116;11.590;2023-01-29T12:23:56;10.97;;;9.57;;
17372;SDS011;8803;48.116;11.590;2023-01-29T12:26:03;11.47;;;9.67;;
17372;SDS011;8803;48.116;11.590;2023-01-29T12:28:23;10.13;;;8.77;;
17372;SDS011;8803;48.116;11.590;2023-01-29T12:30:27;10.03;;;8.80;;
17372;SDS011;8803;48.116;11.590;2023-01-29T12:34:47;11.07;;;9.37;;
17372;SDS011;8803;48.116;11.590;2023-01-29T12:36:54;9.90;;;8.30;;
17372;SDS011;8803;48.116;11.590;2023-01-29T12:39:02;10.93;;;9.10;;
17372;SDS011;8803;48.116;11.590;2023-01-29T12:41:07;9.87;;;8.40;;
17372;SDS011;8803;48.116;11.590;2023-01-29T12:43:17;9.80;;;8.03;;
17372;SDS011;8803;48.116;11.590;2023-01-29T12:45:30;9.83;;;8.10;;
17372;SDS011;8803;48.116;11.590;2023-01-29T12:47:37;11.17;;;8.40;;
17372;SDS011;8803;48.116;11.590;2023-01-29T12:49:42;9.67;;;8.67;;
17372;SDS011;8803;48.116;11.590;2023-01-29T12:51:57;13.80;;;10.90;;
17372;SDS011;8803;48.116;11.590;2023-01-29T12:54:05;12.10;;;10.03;;
17372;SDS011;8803;48.116;11.590;2023-01-29T12:56:12;13.87;;;10.63;;
17372;SDS011;8803;48.116;11.590;2023-01-29T12:58:28;15.70;;;11.43;;
17372;SDS011;8803;48.116;11.590;2023-01-29T13:00:34;12.50;;;9.93;;
17372;SDS011;8803;48.116;11.590;2023-01-29T13:02:48;10.57;;;8.57;;
17372;SDS011;8803;48.116;11.590;2023-01-29T13:05:04;11.00;;;9.60;;
17372;SDS011;8803;48.116;11.590;2023-01-29T13:07:12;10.13;;;8.43;;
17372;SDS011;8803;48.116;11.590;2023-01-29T13:09:19;11.23;;;8.47;;
17372;SDS011;8803;48.116;11.590;2023-01-29T13:13:41;11.03;;;8.40;;
17372;SDS011;8803;48.116;11.590;2023-01-29T13:15:48;10.10;;;8.30;;
17372;SDS011;8803;48.116;11.590;2023-01-29T13:17:54;9.13;;;7.77;;
17372;SDS011;8803;48.116;11.590;2023-01-29T13:20:02;9.97;;;7.73;;
17372;SDS011;8803;48.116;11.590;2023-01-29T13:22:16;10.97;;;8.63;;
17372;SDS011;8803;48.116;11.590;2023-01-29T13:24:23;11.30;;;9.10;;
17372;SDS011;8803;48.116;11.590;2023-01-29T13:26:29;11.30;;;8.90;;
17372;SDS011;8803;48.116;11.590;2023-01-29T13:28:42;10.87;;;9.07;;
17372;SDS011;8803;48.116;11.590;2023-01-29T13:32:59;10.27;;;8.27;;
17372;SDS011;8803;48.116;11.590;2023-01-29T13:35:12;9.87;;;8.03;;
17372;SDS011;8803;48.116;11.590;2023-01-29T13:37:17;9.77;;;8.37;;